createdAt,value
2023-07-08T00:01:38.955Z,22.80
2023-07-08T00:04:05.644Z,22.50
2023-07-08T00:06:32.215Z,23.80
2023-07-08T00:08:58.724Z,23.00
2023-07-08T00:11:25.247Z,23.00
2023-07-08T00:13:51.802Z,24.00
2023-07-08T00:16:18.398Z,22.20
2023-07-08T00:18:45.027Z,22.90
2023-07-08T00:21:11.575Z,22.90
2023-07-08T00:23:38.130Z,22.60
2023-07-08T00:26:04.635Z,22.40
2023-07-08T00:30:58.497Z,22.90
2023-07-08T00:35:52.310Z,22.50
2023-07-08T00:38:18.838Z,22.70
2023-07-08T00:40:45.373Z,22.80
2023-07-08T00:43:11.852Z,22.70
2023-07-08T00:45:44.678Z,23.50
2023-07-08T00:48:20.276Z,23.00
2023-07-08T00:50:46.798Z,23.10
2023-07-08T00:53:13.286Z,22.80
2023-07-08T00:55:39.799Z,22.50
2023-07-08T01:00:33.383Z,22.90
2023-07-08T01:03:00.002Z,22.50
2023-07-08T01:05:26.613Z,22.90
2023-07-08T01:07:53.136Z,23.80
2023-07-08T01:10:19.633Z,22.20
2023-07-08T01:12:46.156Z,23.00
2023-07-08T01:15:12.678Z,22.60
2023-07-08T01:17:39.230Z,22.80
2023-07-08T01:20:05.793Z,22.50
2023-07-08T01:22:32.306Z,22.70
2023-07-08T01:24:58.829Z,22.70
2023-07-08T01:27:25.345Z,22.60
2023-07-08T01:32:19.043Z,22.10
2023-07-08T01:34:45.937Z,22.80
2023-07-08T01:37:12.434Z,22.70
2023-07-08T01:39:38.971Z,23.40
2023-07-08T01:42:05.481Z,24.10
2023-07-08T01:44:31.968Z,22.90
2023-07-08T01:46:58.502Z,22.60
2023-07-08T01:49:24.991Z,22.50
2023-07-08T01:51:51.503Z,23.40
2023-07-08T01:54:18.031Z,23.70
2023-07-08T01:56:44.532Z,23.00
2023-07-08T02:01:38.153Z,22.80
2023-07-08T02:04:04.745Z,22.60
2023-07-08T02:08:58.368Z,22.80
2023-07-08T02:11:24.869Z,22.70
2023-07-08T02:13:51.505Z,23.10
2023-07-08T02:18:45.166Z,24.10
2023-07-08T02:21:11.722Z,22.60
2023-07-08T02:26:05.266Z,22.40
2023-07-08T02:28:31.806Z,23.40
2023-07-08T02:30:58.602Z,23.90
2023-07-08T02:33:25.397Z,23.00
2023-07-08T02:35:51.885Z,23.80
2023-07-08T02:38:18.385Z,23.70
2023-07-08T02:40:44.914Z,22.70
2023-07-08T02:43:11.425Z,22.60
2023-07-08T02:45:38.059Z,22.40
2023-07-08T02:48:04.619Z,22.50
2023-07-08T02:52:58.195Z,22.80
2023-07-08T02:55:24.721Z,22.30
2023-07-08T02:57:51.245Z,22.70
2023-07-08T03:02:44.869Z,22.70
2023-07-08T03:05:11.391Z,23.10
2023-07-08T03:07:37.938Z,22.40
2023-07-08T03:10:04.455Z,22.30
2023-07-08T03:12:30.974Z,22.70
2023-07-08T03:14:57.474Z,22.70
2023-07-08T03:17:24.109Z,22.70
2023-07-08T03:22:17.752Z,22.30
2023-07-08T03:24:44.257Z,22.50
2023-07-08T03:27:10.748Z,22.80
2023-07-08T03:29:37.238Z,22.10
2023-07-08T03:32:03.728Z,22.40
2023-07-08T03:34:30.241Z,24.00
2023-07-08T03:36:56.734Z,22.60
2023-07-08T03:39:23.256Z,22.80
2023-07-08T03:41:49.757Z,22.90
2023-07-08T03:44:16.262Z,22.70
2023-07-08T03:46:42.844Z,22.30
2023-07-08T03:49:09.412Z,22.70
2023-07-08T03:54:02.989Z,22.50
2023-07-08T03:56:29.497Z,22.70
2023-07-08T03:58:55.978Z,22.60
2023-07-08T04:01:22.505Z,22.90
2023-07-08T04:03:49.128Z,22.50
2023-07-08T04:06:15.776Z,23.60
2023-07-08T04:08:42.328Z,22.10
2023-07-08T04:13:35.934Z,22.20
2023-07-08T04:16:02.526Z,22.20
2023-07-08T04:18:29.069Z,20.80
2023-07-08T04:23:24.995Z,21.60
2023-07-08T04:25:51.511Z,21.60
2023-07-08T04:28:18.022Z,21.80
2023-07-08T04:30:44.546Z,21.00
2023-07-08T04:33:11.164Z,21.60
2023-07-08T04:38:04.747Z,20.90
2023-07-08T04:40:31.248Z,22.30
2023-07-08T04:42:57.766Z,21.80
2023-07-08T04:45:24.296Z,20.80
2023-07-08T04:47:50.797Z,20.90
2023-07-08T04:50:17.374Z,22.00
2023-07-08T04:52:43.871Z,21.40
2023-07-08T04:55:10.358Z,20.90
2023-07-08T04:57:36.832Z,21.70
2023-07-08T05:00:03.305Z,20.90
2023-07-08T05:02:29.870Z,22.00
2023-07-08T05:04:56.370Z,21.50
2023-07-08T05:07:22.891Z,21.70
2023-07-08T05:12:16.460Z,22.00
2023-07-08T05:17:10.005Z,22.30
2023-07-08T05:19:36.498Z,21.50
2023-07-08T05:22:03.003Z,21.90
2023-07-08T05:24:29.491Z,21.80
2023-07-08T05:26:55.973Z,21.70
2023-07-08T05:29:22.457Z,21.80
2023-07-08T05:31:48.993Z,21.10
2023-07-08T05:34:15.520Z,21.90
2023-07-08T05:36:42.058Z,20.60
2023-07-08T05:39:08.638Z,21.60
2023-07-08T05:41:35.138Z,22.10
2023-07-08T05:44:01.664Z,20.80
2023-07-08T05:46:28.278Z,21.70
2023-07-08T05:48:54.827Z,21.80
2023-07-08T05:53:48.430Z,22.20
2023-07-08T05:56:14.977Z,21.20
2023-07-08T05:58:41.476Z,22.10
2023-07-08T06:01:08.210Z,22.00
2023-07-08T06:03:34.999Z,21.60
2023-07-08T06:06:01.559Z,21.80
2023-07-08T06:08:28.060Z,21.80
2023-07-08T06:10:54.581Z,21.70
2023-07-08T06:13:21.278Z,21.20
2023-07-08T06:15:47.881Z,22.00
2023-07-08T06:18:14.444Z,21.90
2023-07-08T06:20:40.949Z,21.70
2023-07-08T06:23:07.472Z,22.30
2023-07-08T06:25:33.999Z,21.80
2023-07-08T06:30:27.733Z,22.80
2023-07-08T06:32:54.287Z,21.40
2023-07-08T06:37:47.818Z,22.80
2023-07-08T06:40:14.358Z,21.80
2023-07-08T06:42:40.873Z,22.90
2023-07-08T06:45:07.407Z,21.80
2023-07-08T06:47:33.936Z,22.70
2023-07-08T06:50:00.445Z,22.60
2023-07-08T06:52:26.973Z,22.40
2023-07-08T06:54:53.505Z,23.20
2023-07-08T06:57:20.021Z,22.70
2023-07-08T06:59:46.525Z,22.60
2023-07-08T07:02:13.025Z,22.50
2023-07-08T07:04:39.535Z,22.30
2023-07-08T07:07:06.046Z,22.50
2023-07-08T07:09:33.905Z,22.40
2023-07-08T07:12:00.553Z,22.20
2023-07-08T07:19:25.933Z,22.80
2023-07-08T07:21:52.444Z,22.50
2023-07-08T07:26:46.016Z,23.40
2023-07-08T07:29:12.533Z,23.50
2023-07-08T07:31:40.888Z,22.90
2023-07-08T07:36:34.582Z,22.80
2023-07-08T07:39:01.090Z,22.80
2023-07-08T07:41:27.615Z,22.80
2023-07-08T07:43:54.144Z,22.40
2023-07-08T07:46:20.656Z,22.80
2023-07-08T07:51:14.263Z,22.80
2023-07-08T07:53:40.768Z,22.50
2023-07-08T07:58:34.333Z,23.60
2023-07-08T08:01:01.133Z,23.10
2023-07-08T08:03:27.896Z,23.00
2023-07-08T08:05:54.421Z,22.90
2023-07-08T08:08:20.941Z,23.80
2023-07-08T08:10:47.496Z,23.10
2023-07-08T08:13:14.047Z,23.10
2023-07-08T08:15:40.561Z,23.10
2023-07-08T08:18:07.092Z,23.80
2023-07-08T08:23:00.720Z,23.30
2023-07-08T08:25:27.300Z,22.70
2023-07-08T08:30:20.877Z,23.20
2023-07-08T08:32:47.442Z,23.00
2023-07-08T08:35:13.990Z,24.60
2023-07-08T08:40:07.613Z,24.10
2023-07-08T08:42:34.105Z,23.30
2023-07-08T08:45:00.610Z,23.60
2023-07-08T08:47:27.154Z,23.50
2023-07-08T08:49:53.669Z,24.40
2023-07-08T08:52:20.230Z,24.30
2023-07-08T08:54:46.833Z,23.20
2023-07-08T08:57:13.325Z,23.40
2023-07-08T08:59:39.849Z,23.30
2023-07-08T09:02:06.402Z,25.10
2023-07-08T09:04:32.928Z,23.70
2023-07-08T09:06:59.456Z,23.60
2023-07-08T09:11:53.005Z,23.80
2023-07-08T09:14:19.481Z,23.20
2023-07-08T09:16:46.057Z,24.70
2023-07-08T09:19:12.615Z,24.90
2023-07-08T09:21:39.116Z,23.40
2023-07-08T09:24:05.634Z,25.40
2023-07-08T09:26:32.187Z,23.30
2023-07-08T09:28:58.704Z,23.70
2023-07-08T09:31:25.331Z,23.70
2023-07-08T09:33:51.938Z,23.70
2023-07-08T09:36:18.451Z,23.40
2023-07-08T09:41:12.746Z,23.50
2023-07-08T09:46:06.371Z,24.90
2023-07-08T09:48:32.966Z,24.60
2023-07-08T09:50:59.763Z,23.60
2023-07-08T09:53:26.703Z,24.30
2023-07-08T09:55:53.215Z,25.10
2023-07-08T10:00:46.763Z,24.70
2023-07-08T10:03:13.272Z,25.10
2023-07-08T10:05:39.779Z,24.10
2023-07-08T10:10:33.336Z,25.00
2023-07-08T10:12:59.845Z,23.80
2023-07-08T10:15:26.408Z,25.20
2023-07-08T10:17:53.064Z,25.10
2023-07-08T10:20:19.638Z,24.70
2023-07-08T10:22:46.147Z,24.10
2023-07-08T10:25:12.663Z,24.80
2023-07-08T10:27:39.177Z,24.90
2023-07-08T10:30:07.225Z,24.10
2023-07-08T10:32:34.126Z,24.10
2023-07-08T10:35:00.677Z,24.90
2023-07-08T10:37:27.194Z,25.00
2023-07-08T10:39:53.724Z,24.20
2023-07-08T10:42:20.229Z,24.00
2023-07-08T10:44:46.756Z,25.40
2023-07-08T10:47:13.290Z,24.00
2023-07-08T10:49:39.793Z,23.70
2023-07-08T10:54:33.385Z,23.80
2023-07-08T10:56:59.921Z,25.50
2023-07-08T10:59:26.401Z,24.40
2023-07-08T11:01:53.131Z,25.30
2023-07-08T11:04:19.731Z,25.20
2023-07-08T11:06:46.216Z,24.00
2023-07-08T11:09:12.747Z,25.50
2023-07-08T11:11:39.271Z,25.20
2023-07-08T11:14:05.850Z,24.30
2023-07-08T11:16:35.343Z,25.60
2023-07-08T11:19:03.311Z,24.40
2023-07-08T11:21:29.810Z,25.50
2023-07-08T11:23:56.412Z,25.10
2023-07-08T11:26:22.924Z,25.00
2023-07-08T11:28:49.474Z,25.50
2023-07-08T11:31:16.007Z,25.30
2023-07-08T11:33:42.593Z,25.60
2023-07-08T11:36:09.102Z,24.40
2023-07-08T11:38:35.735Z,25.10
2023-07-08T11:41:02.540Z,24.90
2023-07-08T11:43:29.251Z,25.10
2023-07-08T11:45:55.765Z,24.00
2023-07-08T11:48:22.357Z,25.00
2023-07-08T11:53:15.942Z,25.40
2023-07-08T11:55:42.459Z,25.40
2023-07-08T11:58:10.247Z,24.00
2023-07-08T12:00:36.871Z,24.60
2023-07-08T12:03:03.455Z,25.10
2023-07-08T12:05:30.083Z,24.40
2023-07-08T12:07:56.584Z,23.70
2023-07-08T12:10:23.139Z,25.00
2023-07-08T12:12:49.667Z,25.30
2023-07-08T12:15:16.215Z,25.30
2023-07-08T12:20:09.828Z,23.80
2023-07-08T12:22:36.302Z,25.00
2023-07-08T12:25:02.793Z,24.20
2023-07-08T12:27:29.318Z,24.20
2023-07-08T12:29:55.821Z,25.40
2023-07-08T12:32:22.409Z,24.90
2023-07-08T12:34:51.325Z,23.60
2023-07-08T12:37:17.849Z,25.20
2023-07-08T12:39:44.370Z,25.20
2023-07-08T12:44:37.929Z,24.10
2023-07-08T12:47:04.464Z,24.90
2023-07-08T12:49:31.010Z,23.80
2023-07-08T12:51:57.628Z,24.30
2023-07-08T12:54:24.158Z,25.00
2023-07-08T12:56:50.686Z,24.30
2023-07-08T12:59:17.235Z,25.40
2023-07-08T13:04:10.901Z,24.80
2023-07-08T13:06:37.524Z,24.30
2023-07-08T13:09:04.039Z,24.90
2023-07-08T13:11:30.596Z,24.80
2023-07-08T13:13:57.190Z,24.60
2023-07-08T13:16:23.772Z,24.30
2023-07-08T13:18:50.294Z,24.70
2023-07-08T13:23:45.721Z,24.10
2023-07-08T13:26:12.215Z,24.20
2023-07-08T13:28:38.721Z,23.80
2023-07-08T13:31:05.517Z,24.90
2023-07-08T13:33:32.333Z,25.20
2023-07-08T13:35:58.843Z,24.10
2023-07-08T13:40:52.366Z,25.30
2023-07-08T13:43:21.185Z,24.40
2023-07-08T13:45:48.652Z,24.90
2023-07-08T13:48:15.272Z,24.10
2023-07-08T13:50:41.788Z,25.50
2023-07-08T13:53:08.315Z,25.40
2023-07-08T13:55:34.885Z,24.80
2023-07-08T13:58:01.384Z,23.80
2023-07-08T14:00:27.896Z,25.30
2023-07-08T14:02:54.426Z,25.10
2023-07-08T14:05:21.103Z,24.50
2023-07-08T14:07:47.703Z,24.90
2023-07-08T14:10:14.277Z,24.90
2023-07-08T14:12:40.790Z,25.10
2023-07-08T14:15:07.295Z,25.50
2023-07-08T14:17:33.823Z,24.30
2023-07-08T14:20:00.381Z,24.90
2023-07-08T14:22:26.919Z,25.50
2023-07-08T14:24:53.470Z,25.60
2023-07-08T14:27:20.056Z,24.00
2023-07-08T14:29:46.547Z,24.80
2023-07-08T14:32:13.075Z,24.00
2023-07-08T14:34:39.603Z,25.10
2023-07-08T14:37:06.172Z,25.50
2023-07-08T14:39:32.708Z,23.40
2023-07-08T14:41:59.237Z,24.80
2023-07-08T14:44:25.736Z,25.70
2023-07-08T14:46:52.305Z,24.20
2023-07-08T14:49:18.879Z,23.90
2023-07-08T14:51:45.383Z,24.00
2023-07-08T14:54:11.910Z,25.40
2023-07-08T14:59:05.476Z,25.40
2023-07-08T15:01:32.038Z,25.10
2023-07-08T15:03:58.706Z,23.70
2023-07-08T15:06:25.232Z,25.30
2023-07-08T15:08:51.794Z,24.80
2023-07-08T15:11:18.311Z,25.50
2023-07-08T15:13:44.890Z,24.80
2023-07-08T15:16:11.430Z,25.40
2023-07-08T15:18:38.154Z,24.30
2023-07-08T15:21:04.814Z,25.00
2023-07-08T15:23:31.303Z,25.30
2023-07-08T15:28:24.876Z,23.90
2023-07-08T15:30:51.485Z,25.50
2023-07-08T15:33:18.208Z,23.60
2023-07-08T15:35:44.824Z,25.40
2023-07-08T15:38:11.433Z,24.70
2023-07-08T15:40:37.959Z,25.30
2023-07-08T15:45:31.553Z,25.10
2023-07-08T15:47:58.100Z,25.30
2023-07-08T15:50:24.647Z,24.10
2023-07-08T15:55:18.206Z,25.30
2023-07-08T15:57:44.727Z,24.60
2023-07-08T16:00:11.326Z,24.90
2023-07-08T16:02:38.021Z,24.50
2023-07-08T16:05:04.748Z,23.90
2023-07-08T16:07:31.267Z,25.10
2023-07-08T16:09:57.856Z,25.40
2023-07-08T16:12:24.358Z,25.30
2023-07-08T16:14:50.920Z,25.40
2023-07-08T16:17:17.489Z,25.30
2023-07-08T16:19:44.154Z,24.10
2023-07-08T16:22:10.742Z,25.40
2023-07-08T16:24:37.249Z,25.00
2023-07-08T16:27:03.773Z,25.30
2023-07-08T16:29:30.277Z,24.90
2023-07-08T16:31:56.834Z,25.10
2023-07-08T16:34:23.347Z,25.40
2023-07-08T16:36:49.927Z,25.60
2023-07-08T16:39:16.424Z,25.10
2023-07-08T16:41:42.931Z,25.40
2023-07-08T16:46:36.490Z,23.70
2023-07-08T16:49:03.066Z,25.50
2023-07-08T16:53:56.640Z,25.70
2023-07-08T16:56:23.574Z,25.40
2023-07-08T17:01:17.633Z,24.90
2023-07-08T17:06:11.322Z,25.00
2023-07-08T17:08:37.880Z,25.30
2023-07-08T17:11:04.535Z,25.10
2023-07-08T17:13:31.220Z,25.00
2023-07-08T17:15:57.809Z,25.10
2023-07-08T17:18:24.314Z,25.30
2023-07-08T17:20:50.870Z,23.80
2023-07-08T17:23:17.354Z,25.40
2023-07-08T17:25:43.908Z,25.00
2023-07-08T17:28:10.444Z,25.10
2023-07-08T17:30:36.954Z,25.40
2023-07-08T17:33:03.611Z,24.00
2023-07-08T17:35:30.239Z,25.60
2023-07-08T17:37:56.812Z,25.20
2023-07-08T17:40:23.322Z,23.80
2023-07-08T17:42:49.876Z,24.00
2023-07-08T17:45:16.394Z,23.90
2023-07-08T17:47:42.937Z,25.20
2023-07-08T17:50:09.500Z,24.30
2023-07-08T17:52:36.019Z,25.10
2023-07-08T17:55:02.580Z,24.50
2023-07-08T17:57:29.132Z,25.00
2023-07-08T17:59:55.712Z,24.30
2023-07-08T18:02:22.334Z,25.10
2023-07-08T18:07:15.894Z,25.50
2023-07-08T18:09:42.440Z,25.20
2023-07-08T18:12:08.965Z,24.90
2023-07-08T18:14:35.480Z,25.60
2023-07-08T18:17:02.030Z,25.10
2023-07-08T18:19:28.560Z,25.00
2023-07-08T18:21:55.106Z,25.30
2023-07-08T18:24:21.633Z,25.20
2023-07-08T18:26:48.129Z,25.40
2023-07-08T18:29:14.654Z,24.90
2023-07-08T18:31:41.205Z,24.30
2023-07-08T18:34:07.844Z,23.90
2023-07-08T18:36:34.396Z,25.40
2023-07-08T18:39:00.949Z,25.60
2023-07-08T18:41:27.489Z,25.50
2023-07-08T18:43:54.033Z,25.10
2023-07-08T18:48:47.702Z,25.10
2023-07-08T18:51:14.226Z,23.90
2023-07-08T18:53:40.758Z,25.10
2023-07-08T18:56:07.307Z,25.30
2023-07-08T18:58:33.850Z,24.80
2023-07-08T19:01:00.434Z,24.10
2023-07-08T19:03:27.025Z,25.00
2023-07-08T19:05:53.559Z,24.30
2023-07-08T19:08:20.607Z,25.40
2023-07-08T19:10:47.154Z,25.10
2023-07-08T19:15:40.695Z,25.50
2023-07-08T19:18:07.291Z,25.40
2023-07-08T19:20:33.869Z,24.00
2023-07-08T19:23:00.384Z,25.50
2023-07-08T19:25:26.892Z,24.90
2023-07-08T19:27:53.449Z,24.40
2023-07-08T19:30:19.955Z,25.20
2023-07-08T19:32:46.498Z,24.20
2023-07-08T19:35:13.059Z,23.90
2023-07-08T19:37:39.582Z,25.30
2023-07-08T19:40:06.133Z,25.30
2023-07-08T19:42:32.693Z,25.30
2023-07-08T19:44:59.202Z,24.90
2023-07-08T19:47:25.723Z,25.60
2023-07-08T19:49:52.237Z,25.30
2023-07-08T19:52:18.783Z,24.70
2023-07-08T19:54:45.302Z,23.90
2023-07-08T19:57:11.828Z,24.40
2023-07-08T19:59:38.369Z,24.90
2023-07-08T20:02:04.927Z,23.80
2023-07-08T20:04:31.441Z,24.80
2023-07-08T20:06:57.958Z,25.00
2023-07-08T20:09:24.480Z,23.90
2023-07-08T20:11:51.007Z,24.80
2023-07-08T20:14:17.539Z,24.60
2023-07-08T20:16:44.125Z,24.30
2023-07-08T20:19:10.718Z,25.00
2023-07-08T20:21:37.212Z,23.50
2023-07-08T20:24:03.790Z,24.00
2023-07-08T20:26:30.307Z,24.70
2023-07-08T20:28:57.061Z,25.20
2023-07-08T20:31:23.600Z,25.10
2023-07-08T20:33:50.210Z,23.70
2023-07-08T20:36:16.707Z,24.50
2023-07-08T20:38:43.208Z,25.10
2023-07-08T20:41:09.738Z,24.00
2023-07-08T20:43:36.272Z,24.10
2023-07-08T20:46:02.945Z,25.00
2023-07-08T20:48:29.689Z,25.00
2023-07-08T20:50:56.332Z,23.80
2023-07-08T20:53:22.915Z,24.40
2023-07-08T20:55:49.459Z,23.20
2023-07-08T20:58:16.073Z,24.40
2023-07-08T21:00:42.601Z,24.80
2023-07-08T21:03:09.153Z,23.50
2023-07-08T21:05:35.720Z,23.80
2023-07-08T21:08:02.230Z,24.80
2023-07-08T21:12:55.794Z,25.20
2023-07-08T21:15:22.309Z,25.20
2023-07-08T21:17:48.924Z,25.10
2023-07-08T21:20:15.469Z,24.90
2023-07-08T21:22:41.969Z,24.60
2023-07-08T21:25:08.482Z,23.70
2023-07-08T21:27:34.978Z,24.30
2023-07-08T21:30:01.507Z,23.90
2023-07-08T21:32:29.803Z,23.90
2023-07-08T21:34:56.511Z,23.80
2023-07-08T21:37:23.005Z,23.90
2023-07-08T21:39:49.505Z,24.30
2023-07-08T21:42:16.017Z,24.20
2023-07-08T21:44:42.672Z,23.70
2023-07-08T21:47:09.209Z,23.90
2023-07-08T21:49:35.769Z,25.10
2023-07-08T21:52:02.265Z,23.90
2023-07-08T21:54:28.774Z,23.90
2023-07-08T21:56:55.305Z,23.50
2023-07-08T21:59:21.858Z,24.30
2023-07-08T22:01:48.435Z,24.70
2023-07-08T22:04:15.125Z,23.80
2023-07-08T22:06:41.783Z,24.50
2023-07-08T22:09:08.322Z,24.00
2023-07-08T22:11:34.886Z,24.70
2023-07-08T22:14:01.541Z,24.00
2023-07-08T22:16:28.228Z,23.90
2023-07-08T22:18:54.956Z,23.40
2023-07-08T22:21:21.534Z,24.40
2023-07-08T22:23:48.037Z,23.20
2023-07-08T22:26:14.533Z,23.50
2023-07-08T22:28:41.045Z,23.50
2023-07-08T22:31:07.594Z,23.60
2023-07-08T22:33:34.160Z,24.80
2023-07-08T22:36:00.826Z,23.50
2023-07-08T22:38:27.490Z,24.10
2023-07-08T22:40:54.032Z,24.90
2023-07-08T22:43:20.565Z,24.00
2023-07-08T22:45:47.114Z,24.40
2023-07-08T22:48:13.661Z,23.30
2023-07-08T22:50:40.160Z,24.60
2023-07-08T22:53:06.681Z,23.50
2023-07-08T22:55:33.200Z,24.20
2023-07-08T23:00:26.805Z,24.30
2023-07-08T23:02:53.415Z,24.20
2023-07-08T23:05:20.039Z,23.60
2023-07-08T23:07:46.579Z,23.50
2023-07-08T23:10:13.139Z,23.60
2023-07-08T23:12:39.634Z,23.60
2023-07-08T23:15:06.130Z,23.30
2023-07-08T23:17:32.727Z,23.60
2023-07-08T23:19:59.260Z,24.20
2023-07-08T23:22:25.777Z,23.40
2023-07-08T23:24:52.323Z,23.20
2023-07-08T23:29:45.941Z,23.00
2023-07-08T23:32:12.538Z,23.70
2023-07-08T23:37:06.138Z,23.50
2023-07-08T23:39:32.647Z,23.40
2023-07-08T23:41:59.261Z,23.30
2023-07-08T23:44:25.781Z,23.50
2023-07-08T23:46:52.357Z,23.20
2023-07-08T23:49:19.046Z,24.00
2023-07-08T23:51:45.547Z,23.20
2023-07-08T23:54:12.068Z,22.90
2023-07-08T23:56:38.588Z,23.30
2023-07-08T23:59:05.098Z,23.50
